createdAt,value
2018-08-31T00:02:31.655Z,18.00
2018-08-31T00:05:44.875Z,18.00
2018-08-31T00:09:22.403Z,18.00
2018-08-31T00:13:00.664Z,18.00
2018-08-31T00:15:29.158Z,17.90
2018-08-31T00:17:57.631Z,17.90
2018-08-31T00:20:26.184Z,17.80
2018-08-31T00:22:54.647Z,17.90
2018-08-31T00:26:05.182Z,17.80
2018-08-31T00:28:45.423Z,17.70
2018-08-31T00:31:25.332Z,17.70
2018-08-31T00:34:14.907Z,17.70
2018-08-31T00:37:10.785Z,17.70
2018-08-31T00:40:48.165Z,17.70
2018-08-31T00:43:27.836Z,17.70
2018-08-31T00:45:56.320Z,17.70
2018-08-31T00:48:24.812Z,17.70
2018-08-31T00:50:53.379Z,17.60
2018-08-31T00:53:21.865Z,17.60
2018-08-31T00:55:50.352Z,17.60
2018-08-31T00:58:18.819Z,17.60
2018-08-31T01:00:47.300Z,17.60
2018-08-31T01:03:15.782Z,17.60
2018-08-31T01:05:44.251Z,17.60
2018-08-31T01:08:12.712Z,17.60
2018-08-31T01:10:41.231Z,17.60
2018-08-31T01:13:09.724Z,17.60
2018-08-31T01:15:38.210Z,17.60
2018-08-31T01:18:06.674Z,17.60
2018-08-31T01:20:35.179Z,17.60
2018-08-31T01:23:03.630Z,17.60
2018-08-31T01:25:33.380Z,17.60
2018-08-31T01:28:01.990Z,17.70
2018-08-31T01:30:30.483Z,17.70
2018-08-31T01:32:58.956Z,17.60
2018-08-31T01:35:27.519Z,17.70
2018-08-31T01:37:56.066Z,17.60
2018-08-31T01:40:24.539Z,17.60
2018-08-31T01:42:52.992Z,17.60
2018-08-31T01:45:21.511Z,17.60
2018-08-31T01:47:50.005Z,17.60
2018-08-31T01:50:18.471Z,17.60
2018-08-31T01:52:46.978Z,17.60
2018-08-31T01:55:15.455Z,17.60
2018-08-31T01:57:43.954Z,17.60
2018-08-31T02:00:12.443Z,17.60
2018-08-31T02:02:40.895Z,17.70
2018-08-31T02:05:09.410Z,17.60
2018-08-31T02:07:37.891Z,17.60
2018-08-31T02:10:06.729Z,17.60
2018-08-31T02:12:35.215Z,17.60
2018-08-31T02:15:03.788Z,17.60
2018-08-31T02:17:32.242Z,17.60
2018-08-31T02:20:00.705Z,17.60
2018-08-31T02:22:29.211Z,17.60
2018-08-31T02:24:57.702Z,17.60
2018-08-31T02:27:26.223Z,17.60
2018-08-31T02:29:54.676Z,17.60
2018-08-31T02:32:23.135Z,17.50
2018-08-31T02:34:51.603Z,17.50
2018-08-31T02:37:20.074Z,17.50
2018-08-31T02:39:48.524Z,17.50
2018-08-31T02:42:16.987Z,17.50
2018-08-31T02:44:45.455Z,17.50
2018-08-31T02:47:13.895Z,17.40
2018-08-31T02:49:42.387Z,17.40
2018-08-31T02:52:10.845Z,17.40
2018-08-31T02:54:39.302Z,17.30
2018-08-31T02:57:07.783Z,17.30
2018-08-31T02:59:36.322Z,17.30
2018-08-31T03:02:04.779Z,17.20
2018-08-31T03:04:33.271Z,17.20
2018-08-31T03:07:01.747Z,17.20
2018-08-31T03:09:30.183Z,17.10
2018-08-31T03:11:58.675Z,17.10
2018-08-31T03:14:27.642Z,17.10
2018-08-31T03:16:56.095Z,17.10
2018-08-31T03:19:24.540Z,17.00
2018-08-31T03:21:53.035Z,17.00
2018-08-31T03:24:21.479Z,17.00
2018-08-31T03:26:49.923Z,17.00
2018-08-31T03:29:18.399Z,17.00
2018-08-31T03:31:46.859Z,17.00
2018-08-31T03:34:15.342Z,17.00
2018-08-31T03:36:43.780Z,16.90
2018-08-31T03:39:12.264Z,17.00
2018-08-31T03:41:40.718Z,16.90
2018-08-31T03:44:09.193Z,16.90
2018-08-31T03:46:37.638Z,16.90
2018-08-31T03:49:06.182Z,16.90
2018-08-31T03:51:34.703Z,16.80
2018-08-31T03:54:03.199Z,16.80
2018-08-31T03:56:31.661Z,16.80
2018-08-31T03:59:00.095Z,16.80
2018-08-31T04:01:28.550Z,16.80
2018-08-31T04:03:57.019Z,16.80
2018-08-31T04:06:25.548Z,16.70
2018-08-31T04:08:54.000Z,16.70
2018-08-31T04:11:22.459Z,16.70
2018-08-31T04:13:50.902Z,16.70
2018-08-31T04:16:19.335Z,16.60
2018-08-31T04:18:47.807Z,16.60
2018-08-31T04:21:16.263Z,16.60
2018-08-31T04:23:44.744Z,16.60
2018-08-31T04:26:13.338Z,16.50
2018-08-31T04:28:41.832Z,16.50
2018-08-31T04:31:10.339Z,16.50
2018-08-31T04:33:38.818Z,16.50
2018-08-31T04:36:07.264Z,16.40
2018-08-31T04:38:35.699Z,16.30
2018-08-31T04:41:04.215Z,16.30
2018-08-31T04:43:32.650Z,16.30
2018-08-31T04:46:01.131Z,16.20
2018-08-31T04:48:29.587Z,16.30
2018-08-31T04:50:58.059Z,16.30
2018-08-31T04:53:26.492Z,16.30
2018-08-31T04:55:54.964Z,16.30
2018-08-31T04:58:23.429Z,16.20
2018-08-31T05:00:51.859Z,16.30
2018-08-31T05:03:20.415Z,16.30
2018-08-31T05:05:48.855Z,16.20
2018-08-31T05:08:17.384Z,16.20
2018-08-31T05:10:45.910Z,16.20
2018-08-31T05:13:14.364Z,16.20
2018-08-31T05:15:42.812Z,16.10
2018-08-31T05:18:11.279Z,16.10
2018-08-31T05:20:39.728Z,16.10
2018-08-31T05:23:08.235Z,16.00
2018-08-31T05:25:36.661Z,16.00
2018-08-31T05:28:05.123Z,16.00
2018-08-31T05:30:33.595Z,16.00
2018-08-31T05:33:02.039Z,16.00
2018-08-31T05:35:30.499Z,16.00
2018-08-31T05:37:58.955Z,15.90
2018-08-31T05:40:27.434Z,15.90
2018-08-31T05:42:55.867Z,15.90
2018-08-31T05:45:24.335Z,15.90
2018-08-31T05:47:52.766Z,15.90
2018-08-31T05:50:21.198Z,15.90
2018-08-31T05:52:49.667Z,15.90
2018-08-31T05:55:18.108Z,15.90
2018-08-31T05:57:46.578Z,15.90
2018-08-31T06:00:15.035Z,15.90
2018-08-31T06:02:43.511Z,15.90
2018-08-31T06:05:11.964Z,15.90
2018-08-31T06:07:40.429Z,15.90
2018-08-31T06:10:08.915Z,16.00
2018-08-31T06:12:37.383Z,16.00
2018-08-31T06:15:06.023Z,16.00
2018-08-31T06:17:34.466Z,16.10
2018-08-31T06:20:02.991Z,16.20
2018-08-31T06:22:31.431Z,16.30
2018-08-31T06:24:59.907Z,16.40
2018-08-31T06:27:28.372Z,16.50
2018-08-31T06:29:56.822Z,16.50
2018-08-31T06:32:25.253Z,16.60
2018-08-31T06:34:53.726Z,16.60
2018-08-31T06:37:22.179Z,16.70
2018-08-31T06:39:50.672Z,16.80
2018-08-31T06:42:19.151Z,16.90
2018-08-31T06:44:47.593Z,17.00
2018-08-31T06:47:16.411Z,17.10
2018-08-31T06:49:44.886Z,17.10
2018-08-31T06:52:13.363Z,17.20
2018-08-31T06:54:41.823Z,17.30
2018-08-31T06:57:10.266Z,17.30
2018-08-31T06:59:38.711Z,17.40
2018-08-31T07:02:07.163Z,17.50
2018-08-31T07:04:35.666Z,17.50
2018-08-31T07:07:04.151Z,17.60
2018-08-31T07:09:32.623Z,17.60
2018-08-31T07:12:01.077Z,17.60
2018-08-31T07:14:29.547Z,17.60
2018-08-31T07:16:57.994Z,17.60
2018-08-31T07:19:26.560Z,17.70
2018-08-31T07:21:54.942Z,17.80
2018-08-31T07:24:23.398Z,17.90
2018-08-31T07:26:51.929Z,17.90
2018-08-31T07:29:20.378Z,18.00
2018-08-31T07:31:48.871Z,18.10
2018-08-31T07:34:17.320Z,18.10
2018-08-31T07:36:45.788Z,18.20
2018-08-31T07:39:14.243Z,18.20
2018-08-31T07:41:42.750Z,18.30
2018-08-31T07:44:11.270Z,18.40
2018-08-31T07:46:39.709Z,18.50
2018-08-31T07:49:08.486Z,18.50
2018-08-31T07:51:36.947Z,18.60
2018-08-31T07:54:05.511Z,18.50
2018-08-31T07:56:33.982Z,18.50
2018-08-31T07:59:02.566Z,18.60
2018-08-31T08:01:31.115Z,18.60
2018-08-31T08:03:59.576Z,18.60
2018-08-31T08:06:28.032Z,18.60
2018-08-31T08:08:56.486Z,18.70
2018-08-31T08:11:24.947Z,18.80
2018-08-31T08:13:53.399Z,18.90
2018-08-31T08:16:21.831Z,19.00
2018-08-31T08:18:50.311Z,19.20
2018-08-31T08:21:18.795Z,19.20
2018-08-31T08:23:47.250Z,19.30
2018-08-31T08:26:15.675Z,19.50
2018-08-31T08:28:44.151Z,19.50
2018-08-31T08:31:12.620Z,19.50
2018-08-31T08:33:41.083Z,19.60
2018-08-31T08:36:09.532Z,19.60
2018-08-31T08:38:38.004Z,19.50
2018-08-31T08:41:06.483Z,19.40
2018-08-31T08:43:34.963Z,19.30
2018-08-31T08:46:03.423Z,19.30
2018-08-31T08:48:32.088Z,19.10
2018-08-31T08:51:00.439Z,19.00
2018-08-31T08:53:28.876Z,18.90
2018-08-31T08:55:57.335Z,18.90
2018-08-31T08:58:25.886Z,18.90
2018-08-31T09:00:54.447Z,18.90
2018-08-31T09:03:22.911Z,18.90
2018-08-31T09:05:51.375Z,19.00
2018-08-31T09:08:19.819Z,19.00
2018-08-31T09:10:48.275Z,18.90
2018-08-31T09:13:16.735Z,18.90
2018-08-31T09:15:45.175Z,18.90
2018-08-31T09:18:13.691Z,19.00
2018-08-31T09:20:42.158Z,19.10
2018-08-31T09:23:10.620Z,19.20
2018-08-31T09:25:39.099Z,19.20
2018-08-31T09:28:07.928Z,19.20
2018-08-31T09:30:44.089Z,19.30
2018-08-31T09:33:12.578Z,19.30
2018-08-31T09:35:41.018Z,19.40
2018-08-31T09:38:09.484Z,19.40
2018-08-31T09:40:37.924Z,19.50
2018-08-31T09:43:06.443Z,19.60
2018-08-31T09:45:34.937Z,19.60
2018-08-31T09:48:04.059Z,19.70
2018-08-31T09:50:32.499Z,19.90
2018-08-31T09:53:00.963Z,20.10
2018-08-31T09:55:29.462Z,20.30
2018-08-31T09:57:58.356Z,20.50
2018-08-31T10:00:32.211Z,20.80
2018-08-31T10:03:11.760Z,21.10
2018-08-31T10:05:40.218Z,21.50
2018-08-31T10:08:08.659Z,21.70
2018-08-31T10:10:37.156Z,21.90
2018-08-31T10:13:05.609Z,22.10
2018-08-31T10:15:34.067Z,22.00
2018-08-31T10:18:02.522Z,22.10
2018-08-31T10:20:30.995Z,22.30
2018-08-31T10:22:59.430Z,22.80
2018-08-31T10:25:28.028Z,23.20
2018-08-31T10:27:56.708Z,23.30
2018-08-31T10:30:25.351Z,23.30
2018-08-31T10:32:53.975Z,23.20
2018-08-31T10:35:23.069Z,23.00
2018-08-31T10:37:51.734Z,22.90
2018-08-31T10:40:20.224Z,22.60
2018-08-31T10:42:48.682Z,22.50
2018-08-31T10:45:17.134Z,22.30
2018-08-31T10:47:45.623Z,22.30
2018-08-31T10:50:14.087Z,22.30
2018-08-31T10:52:42.527Z,22.20
2018-08-31T10:55:10.963Z,22.10
2018-08-31T10:57:39.418Z,22.00
2018-08-31T11:00:08.133Z,21.90
2018-08-31T11:02:36.627Z,21.70
2018-08-31T11:05:05.091Z,21.60
2018-08-31T11:07:33.554Z,21.60
2018-08-31T11:10:02.012Z,21.50
2018-08-31T11:12:30.487Z,21.20
2018-08-31T11:14:58.927Z,21.10
2018-08-31T11:17:27.395Z,21.10
2018-08-31T11:19:55.843Z,21.00
2018-08-31T11:22:24.327Z,21.10
2018-08-31T11:24:52.761Z,21.10
2018-08-31T11:27:21.250Z,21.10
2018-08-31T11:29:49.706Z,21.00
2018-08-31T11:32:18.159Z,21.00
2018-08-31T11:34:46.758Z,20.90
2018-08-31T11:37:15.222Z,20.90
2018-08-31T11:39:43.716Z,20.80
2018-08-31T11:42:12.165Z,20.70
2018-08-31T11:44:40.632Z,20.70
2018-08-31T11:47:09.075Z,20.80
2018-08-31T11:49:37.551Z,20.90
2018-08-31T11:52:05.991Z,21.00
2018-08-31T11:54:34.435Z,21.00
2018-08-31T11:57:02.939Z,21.20
2018-08-31T11:59:31.454Z,21.30
2018-08-31T12:01:59.944Z,21.40
2018-08-31T12:04:28.411Z,21.50
2018-08-31T12:06:56.884Z,21.60
2018-08-31T12:09:25.355Z,21.60
2018-08-31T12:11:53.838Z,21.60
2018-08-31T12:14:22.280Z,21.60
2018-08-31T12:16:50.755Z,21.50
2018-08-31T12:19:19.195Z,21.30
2018-08-31T12:21:47.679Z,21.30
2018-08-31T12:24:16.143Z,21.20
2018-08-31T12:26:44.586Z,21.10
2018-08-31T12:29:13.058Z,21.10
2018-08-31T12:31:41.518Z,21.00
2018-08-31T12:34:09.998Z,20.90
2018-08-31T12:36:38.475Z,20.70
2018-08-31T12:39:09.239Z,20.70
2018-08-31T12:41:37.690Z,20.60
2018-08-31T12:44:06.449Z,20.50
2018-08-31T12:46:34.923Z,20.50
2018-08-31T12:49:03.942Z,20.50
2018-08-31T12:51:32.435Z,20.40
2018-08-31T12:54:00.906Z,20.40
2018-08-31T12:56:29.819Z,20.40
2018-08-31T12:58:58.267Z,20.50
2018-08-31T13:01:26.751Z,20.50
2018-08-31T13:03:55.188Z,20.40
2018-08-31T13:06:23.948Z,20.40
2018-08-31T13:08:52.424Z,20.40
2018-08-31T13:11:20.898Z,20.30
2018-08-31T13:13:49.359Z,20.30
2018-08-31T13:16:17.958Z,20.20
2018-08-31T13:18:46.775Z,20.20
2018-08-31T13:21:15.212Z,20.20
2018-08-31T13:23:43.682Z,20.20
2018-08-31T13:26:12.154Z,20.20
2018-08-31T13:28:40.619Z,20.20
2018-08-31T13:31:09.077Z,20.20
2018-08-31T13:33:37.525Z,20.20
2018-08-31T13:36:06.031Z,20.20
2018-08-31T13:38:34.479Z,20.10
2018-08-31T13:41:03.109Z,20.10
2018-08-31T13:43:31.542Z,20.10
2018-08-31T13:46:00.007Z,20.00
2018-08-31T13:48:28.455Z,20.00
2018-08-31T13:50:56.945Z,20.00
2018-08-31T13:53:25.374Z,20.00
2018-08-31T13:55:53.814Z,20.00
2018-08-31T13:58:22.752Z,20.00
2018-08-31T14:00:51.103Z,19.90
2018-08-31T14:03:19.560Z,19.80
2018-08-31T14:05:47.999Z,19.80
2018-08-31T14:08:16.467Z,19.80
2018-08-31T14:10:44.907Z,19.70
2018-08-31T14:13:13.363Z,19.70
2018-08-31T14:15:41.811Z,19.70
2018-08-31T14:18:10.267Z,19.70
2018-08-31T14:20:38.695Z,19.60
2018-08-31T14:23:07.136Z,19.60
2018-08-31T14:25:35.643Z,19.60
2018-08-31T14:28:04.094Z,19.60
2018-08-31T14:30:32.583Z,19.50
2018-08-31T14:33:01.033Z,19.50
2018-08-31T14:35:29.588Z,19.50
2018-08-31T14:37:58.031Z,19.50
2018-08-31T14:40:26.492Z,19.50
2018-08-31T14:42:54.937Z,19.50
2018-08-31T14:45:23.387Z,19.50
2018-08-31T14:47:51.859Z,19.50
2018-08-31T14:50:20.315Z,19.50
2018-08-31T14:52:48.772Z,19.50
2018-08-31T14:55:17.275Z,19.50
2018-08-31T14:57:45.743Z,19.50
2018-08-31T15:00:14.224Z,19.50
2018-08-31T15:02:42.984Z,19.50
2018-08-31T15:05:11.435Z,19.40
2018-08-31T15:07:39.898Z,19.50
2018-08-31T15:10:08.434Z,19.50
2018-08-31T15:12:36.875Z,19.40
2018-08-31T15:15:05.712Z,19.40
2018-08-31T15:17:34.149Z,19.30
2018-08-31T15:20:02.610Z,19.30
2018-08-31T15:22:31.070Z,19.30
2018-08-31T15:24:59.557Z,19.30
2018-08-31T15:27:27.976Z,19.20
2018-08-31T15:29:56.435Z,19.10
2018-08-31T15:32:25.251Z,19.10
2018-08-31T15:34:53.722Z,19.00
2018-08-31T15:37:22.200Z,19.00
2018-08-31T15:39:50.642Z,18.90
2018-08-31T15:42:19.157Z,18.90
2018-08-31T15:44:47.542Z,18.80
2018-08-31T15:47:16.003Z,18.80
2018-08-31T15:49:44.603Z,18.70
2018-08-31T15:52:12.934Z,18.60
2018-08-31T15:54:41.391Z,18.60
2018-08-31T15:57:09.844Z,18.50
2018-08-31T15:59:38.307Z,18.50
2018-08-31T16:02:07.333Z,18.40
2018-08-31T16:04:35.799Z,18.30
2018-08-31T16:07:04.507Z,18.30
2018-08-31T16:09:32.947Z,18.30
2018-08-31T16:12:01.440Z,18.30
2018-08-31T16:14:30.355Z,18.30
2018-08-31T16:16:58.839Z,18.20
2018-08-31T16:19:27.270Z,18.30
2018-08-31T16:21:55.795Z,18.20
2018-08-31T16:24:24.247Z,18.20
2018-08-31T16:26:52.712Z,18.10
2018-08-31T16:29:21.151Z,18.00
2018-08-31T16:31:49.588Z,18.00
2018-08-31T16:34:18.070Z,18.00
2018-08-31T16:36:46.513Z,17.90
2018-08-31T16:39:14.981Z,17.90
2018-08-31T16:41:43.418Z,17.90
2018-08-31T16:44:11.883Z,17.90
2018-08-31T16:46:40.338Z,17.90
2018-08-31T16:49:08.798Z,17.90
2018-08-31T16:51:37.230Z,17.80
2018-08-31T16:54:05.755Z,17.70
2018-08-31T16:56:35.116Z,17.70
2018-08-31T16:59:03.583Z,17.60
2018-08-31T17:01:32.023Z,17.50
2018-08-31T17:04:00.823Z,17.40
2018-08-31T17:06:29.262Z,17.40
2018-08-31T17:08:57.715Z,17.30
2018-08-31T17:11:26.209Z,17.30
2018-08-31T17:13:54.642Z,17.20
2018-08-31T17:16:23.088Z,17.10
2018-08-31T17:18:51.546Z,17.00
2018-08-31T17:21:20.019Z,17.00
2018-08-31T17:23:48.535Z,16.90
2018-08-31T17:26:22.423Z,16.90
2018-08-31T17:28:56.259Z,16.80
2018-08-31T17:31:29.983Z,16.80
2018-08-31T17:34:03.820Z,16.80
2018-08-31T17:36:37.586Z,16.80
2018-08-31T17:39:08.255Z,16.80
2018-08-31T17:41:36.727Z,16.70
2018-08-31T17:44:05.247Z,16.70
2018-08-31T17:46:33.727Z,16.70
2018-08-31T17:49:02.188Z,16.60
2018-08-31T17:51:30.718Z,16.60
2018-08-31T17:53:59.194Z,16.60
2018-08-31T17:56:27.806Z,16.70
2018-08-31T17:58:56.271Z,16.70
2018-08-31T18:01:24.915Z,16.70
2018-08-31T18:03:53.367Z,16.80
2018-08-31T18:06:21.803Z,16.80
2018-08-31T18:08:50.259Z,16.70
2018-08-31T18:11:18.704Z,16.80
2018-08-31T18:13:47.283Z,16.70
2018-08-31T18:16:15.763Z,16.70
2018-08-31T18:18:44.235Z,16.70
2018-08-31T18:21:12.687Z,16.70
2018-08-31T18:23:41.147Z,16.70
2018-08-31T18:26:09.603Z,16.70
2018-08-31T18:28:38.052Z,16.70
2018-08-31T18:31:06.547Z,16.80
2018-08-31T18:33:34.983Z,16.70
2018-08-31T18:36:03.459Z,16.70
2018-08-31T18:38:31.896Z,16.70
2018-08-31T18:41:00.396Z,16.70
2018-08-31T18:43:28.858Z,16.70
2018-08-31T18:45:57.351Z,16.60
2018-08-31T18:48:25.823Z,16.70
2018-08-31T18:50:54.302Z,16.60
2018-08-31T18:53:22.742Z,16.60
2018-08-31T18:55:51.179Z,16.60
2018-08-31T18:58:19.639Z,16.60
2018-08-31T19:00:48.091Z,16.50
2018-08-31T19:03:16.554Z,16.60
2018-08-31T19:05:45.163Z,16.50
2018-08-31T19:08:13.651Z,16.50
2018-08-31T19:10:42.094Z,16.50
2018-08-31T19:13:10.567Z,16.50
2018-08-31T19:15:39.027Z,16.50
2018-08-31T19:18:07.501Z,16.40
2018-08-31T19:20:35.969Z,16.40
2018-08-31T19:23:04.411Z,16.40
2018-08-31T19:25:32.883Z,16.40
2018-08-31T19:28:01.336Z,16.30
2018-08-31T19:30:29.806Z,16.30
2018-08-31T19:32:58.263Z,16.30
2018-08-31T19:35:26.740Z,16.20
2018-08-31T19:37:55.188Z,16.20
2018-08-31T19:40:23.787Z,16.20
2018-08-31T19:42:52.234Z,16.20
2018-08-31T19:45:20.699Z,16.20
2018-08-31T19:47:49.143Z,16.30
2018-08-31T19:50:17.604Z,16.20
2018-08-31T19:52:46.044Z,16.20
2018-08-31T19:55:14.510Z,16.20
2018-08-31T19:57:42.959Z,16.20
2018-08-31T20:00:11.467Z,16.30
2018-08-31T20:02:39.907Z,16.30
2018-08-31T20:05:08.631Z,16.20
2018-08-31T20:07:37.077Z,16.30
2018-08-31T20:10:05.579Z,16.30
2018-08-31T20:12:34.015Z,16.30
2018-08-31T20:15:02.484Z,16.30
2018-08-31T20:17:30.933Z,16.30
2018-08-31T20:19:59.383Z,16.30
2018-08-31T20:22:27.846Z,16.30
2018-08-31T20:24:56.305Z,16.30
2018-08-31T20:27:24.779Z,16.30
2018-08-31T20:29:53.207Z,16.30
2018-08-31T20:32:21.670Z,16.30
2018-08-31T20:34:50.119Z,16.30
2018-08-31T20:37:18.578Z,16.20
2018-08-31T20:39:47.020Z,16.30
2018-08-31T20:42:15.487Z,16.20
2018-08-31T20:44:43.932Z,16.20
2018-08-31T20:47:12.412Z,16.20
2018-08-31T20:49:40.895Z,16.20
2018-08-31T20:52:09.351Z,16.20
2018-08-31T20:54:37.839Z,16.20
2018-08-31T20:57:06.499Z,16.10
2018-08-31T20:59:34.967Z,16.10
2018-08-31T21:02:03.424Z,16.10
2018-08-31T21:04:31.892Z,16.10
2018-08-31T21:07:00.386Z,16.20
2018-08-31T21:09:28.853Z,16.10
2018-08-31T21:11:57.327Z,16.10
2018-08-31T21:14:25.801Z,16.20
2018-08-31T21:16:54.242Z,16.10
2018-08-31T21:19:22.671Z,16.20
2018-08-31T21:21:51.146Z,16.20
2018-08-31T21:24:19.586Z,16.10
2018-08-31T21:26:48.066Z,16.10
2018-08-31T21:29:16.499Z,16.10
2018-08-31T21:31:44.978Z,16.00
2018-08-31T21:34:13.420Z,16.00
2018-08-31T21:36:41.906Z,16.00
2018-08-31T21:39:10.590Z,15.90
2018-08-31T21:41:39.185Z,15.90
2018-08-31T21:44:07.678Z,15.90
2018-08-31T21:46:36.158Z,15.90
2018-08-31T21:49:04.627Z,15.90
2018-08-31T21:51:33.072Z,15.90
2018-08-31T21:54:01.543Z,15.90
2018-08-31T21:56:30.015Z,15.90
2018-08-31T21:58:58.485Z,15.90
2018-08-31T22:01:32.400Z,15.90
2018-08-31T22:04:00.827Z,15.90
2018-08-31T22:06:29.291Z,15.90
2018-08-31T22:08:57.731Z,15.90
2018-08-31T22:11:26.164Z,15.80
2018-08-31T22:13:54.627Z,15.80
2018-08-31T22:16:23.084Z,15.80
2018-08-31T22:18:51.579Z,15.80
2018-08-31T22:21:20.039Z,15.90
2018-08-31T22:23:48.502Z,15.80
2018-08-31T22:26:16.971Z,15.80
2018-08-31T22:28:45.427Z,15.80
2018-08-31T22:31:13.926Z,15.70
2018-08-31T22:33:42.395Z,15.70
2018-08-31T22:36:10.866Z,15.70
2018-08-31T22:38:39.311Z,15.70
2018-08-31T22:41:07.771Z,15.70
2018-08-31T22:43:41.726Z,15.70
2018-08-31T22:46:10.177Z,15.70
2018-08-31T22:48:38.773Z,15.60
2018-08-31T22:51:07.242Z,15.60
2018-08-31T22:53:35.679Z,15.60
2018-08-31T22:56:04.155Z,15.60
2018-08-31T22:58:32.592Z,15.50
2018-08-31T23:01:01.035Z,15.40
2018-08-31T23:03:29.515Z,15.40
2018-08-31T23:05:57.978Z,15.40
2018-08-31T23:08:26.447Z,15.40
2018-08-31T23:10:54.886Z,15.40
2018-08-31T23:13:23.386Z,15.40
2018-08-31T23:15:51.880Z,15.40
2018-08-31T23:18:20.383Z,15.40
2018-08-31T23:20:48.835Z,15.40
2018-08-31T23:23:22.695Z,15.30
2018-08-31T23:25:52.091Z,15.30
2018-08-31T23:28:21.822Z,15.30
2018-08-31T23:30:50.325Z,15.20
2018-08-31T23:33:18.827Z,15.20
2018-08-31T23:35:47.394Z,15.10
2018-08-31T23:38:15.858Z,15.10
2018-08-31T23:40:44.323Z,15.00
2018-08-31T23:43:12.760Z,15.00
2018-08-31T23:45:41.267Z,15.00
2018-08-31T23:48:09.679Z,15.00
2018-08-31T23:50:38.138Z,14.90
2018-08-31T23:53:06.602Z,14.90
2018-08-31T23:55:35.051Z,14.80
2018-08-31T23:58:03.542Z,14.80
